Pagrindinis puslapis
METAR-TAF:

METAR-TAF

Oro uostai :

Jakutskas, Rusija

platuma: 62-01N, ilguma: 129-43E, Aukštis: 103 m

Dabartinis oras

Ataskaita buvo paskelbta 15 minutes, ne 18:00 UTC
Vėjas 6 kt iš Šiaurės
Temperatūra -34°C
Drėgmė 74%
Slėgis 1026 hPa
Matomumas 10 km arba daugiau
nėra debesų žemiau 1500 m ir nėra kamuolinių lietaus debesų

METAR: UEEE 291800Z 36003MPS CAVOK M34/M37 Q1026 R23L/450148 NOSIG RMK QFE761

Laikas: 03:15 (18:15 UTC)

Prognozė

Ataskaita buvo paskelbta 1 valandą ir 15 minutes, ne 17:00 UTC
Prognozė galioja nuo 29 metu 18 UTC su 30 metu 24 UTC
Vėjas 6 kt iš Šiaurės
Matomumas 10 km arba daugiau
nėra debesų žemiau 1500 m ir nėra kamuolinių lietaus debesų
Laikinai
nuo 29 metu 18 UTC su 30 metu 03 UTC
Matomumas: 3200 m
rūkana

TAF: UEEE 291700Z 2918/3024 01003MPS CAVOK TEMPO 2918/3003 3200 BR

Orai ataskaitas ir orų prognozės (METAR, TAF).

turimą stotys yra geltonos ir raudonos taškus žemėlapyje.

Perkelti pele per norėdami pamatyti stoties vardą.

Tada spustelėkite, norėdami matyti oro stebėjimo ir prognozės.

Norėdami pakeisti žemėlapį: spustelėkite ant žalios mygtukų su juodo kryžiaus žemyn,; žalią mygtuką su brūkšneliu, jei norite nutolinti; arba žalių rodyklių gretimoms žemėlapius.


METAR-TAF: